Time;durP1;ratioP1;P1;durP2;ratioP2;P2;SDS_P1;SDS_P2;PMS_P1;PMS_P2;Temp;Humidity;BMP_temperature;BMP_pressure;BME280_temperature;BME280_humidity;BME280_pressure;Samples;Min_cycle;Max_cycle;Signal;HPM_P1;HPM_P2
2021/12/30 14:00:20;;;;;;;70.20;16.00;;;;;;;;;;5592152;23;20080;-75
2021/12/30 14:02:58;;;;;;;72.57;15.27;;;;;;;;;;4860894;29;20025;-75
2021/12/30 14:05:25;;;;;;;103.28;15.32;;;;;;;;;;4862036;29;20128;-75
2021/12/30 14:07:52;;;;;;;69.40;15.43;;;;;;;;;;4863133;29;20087;-74
2021/12/30 14:10:18;;;;;;;113.50;15.95;;;;;;;;;;4861935;29;20367;-74
2021/12/30 14:12:56;;;;;;;131.40;17.90;;;;;;;;;;4861850;29;20045;-75
2021/12/30 14:15:23;;;;;;;117.78;16.80;;;;;;;;;;4861862;29;20040;-73
2021/12/30 14:17:57;;;;;;;129.45;16.73;;;;;;;;;;4861271;29;20078;-75
2021/12/30 14:20:24;;;;;;;152.45;15.80;;;;;;;;;;4861492;29;20036;-75
2021/12/30 14:22:58;;;;;;;189.25;16.40;;;;;;;;;;4863400;29;20045;-73
2021/12/30 14:25:32;;;;;;;126.20;16.60;;;;;;;;;;4862838;29;20077;-74
2021/12/30 14:27:59;;;;;;;113.55;17.20;;;;;;;;;;4862728;29;20387;-73
2021/12/30 14:30:36;;;;;;;119.07;16.55;;;;;;;;;;4862719;29;20028;-73
2021/12/30 14:33:21;;;;;;;121.70;16.98;;;;;;;;;;4863342;29;20391;-72
2021/12/30 14:35:47;;;;;;;159.50;16.48;;;;;;;;;;4863039;29;20036;-74
2021/12/30 14:38:26;;;;;;;166.90;17.40;;;;;;;;;;4861521;29;20091;-74
2021/12/30 14:41:13;;;;;;;88.88;16.90;;;;;;;;;;4863242;29;20029;-73
2021/12/30 14:43:58;;;;;;;166.80;17.98;;;;;;;;;;4861328;29;20034;-73
2021/12/30 14:46:26;;;;;;;139.35;19.75;;;;;;;;;;4861297;29;20398;-73
2021/12/30 14:49:03;;;;;;;120.18;20.40;;;;;;;;;;4861256;29;20039;-74
2021/12/30 14:51:33;;;;;;;114.45;18.10;;;;;;;;;;4861212;29;20033;-73
2021/12/30 14:54:00;;;;;;;114.85;19.85;;;;;;;;;;4862184;29;20132;-74
2021/12/30 14:56:26;;;;;;;147.43;20.40;;;;;;;;;;4861167;29;20026;-73
2021/12/30 14:58:52;;;;;;;231.23;26.38;;;;;;;;;;4861058;29;20189;-74
2021/12/30 15:01:19;;;;;;;128.77;21.85;;;;;;;;;;4860840;29;20060;-73
2021/12/30 15:03:45;;;;;;;130.20;18.42;;;;;;;;;;4862801;29;20104;-72
2021/12/30 15:06:20;;;;;;;68.65;16.67;;;;;;;;;;4861104;29;20033;-72
2021/12/30 15:09:08;;;;;;;;;;;;;;;;;;;;;
2021/12/30 15:11:47;;;;;;;148.88;19.45;;;;;;;;;;4862507;29;20022;-84
2021/12/30 15:14:13;;;;;;;147.43;21.05;;;;;;;;;;4861074;29;20057;-75
2021/12/30 15:16:39;;;;;;;136.07;19.30;;;;;;;;;;4860801;29;20112;-77
2021/12/30 15:19:05;;;;;;;135.52;19.33;;;;;;;;;;4860696;29;20354;-74
2021/12/30 15:21:31;;;;;;;188.10;23.75;;;;;;;;;;4860723;29;20078;-73
2021/12/30 15:23:57;;;;;;;250.65;24.05;;;;;;;;;;4861898;29;20040;-74
2021/12/30 15:26:23;;;;;;;160.30;21.50;;;;;;;;;;4860569;29;20475;-73
2021/12/30 15:28:49;;;;;;;224.52;22.52;;;;;;;;;;4861775;29;20062;-74
2021/12/30 15:31:16;;;;;;;216.40;21.38;;;;;;;;;;4861978;29;20077;-75
2021/12/30 15:33:45;;;;;;;111.10;19.30;;;;;;;;;;4862194;29;20033;-75
2021/12/30 15:36:11;;;;;;;103.47;19.23;;;;;;;;;;4860507;29;20037;-74
2021/12/30 15:38:37;;;;;;;73.70;17.20;;;;;;;;;;4860425;29;20068;-72
2021/12/30 15:41:03;;;;;;;72.97;17.45;;;;;;;;;;4860117;29;20169;-76
2021/12/30 15:43:30;;;;;;;116.45;20.50;;;;;;;;;;4860380;29;20038;-74
2021/12/30 15:45:56;;;;;;;112.20;20.20;;;;;;;;;;4858908;29;20057;-80
2021/12/30 15:48:27;;;;;;;66.68;18.67;;;;;;;;;;4860160;29;20091;-72
2021/12/30 15:50:53;;;;;;;82.38;20.33;;;;;;;;;;4857711;29;20471;-73
2021/12/30 15:53:20;;;;;;;57.25;20.10;;;;;;;;;;4860321;29;20034;-72
2021/12/30 15:56:22;;;;;;;;;;;;;;;;;;;;;
2021/12/30 15:58:48;;;;;;;67.95;20.90;;;;;;;;;;4859354;29;20375;-73
2021/12/30 16:01:14;;;;;;;49.08;17.67;;;;;;;;;;4859923;29;20045;-73
2021/12/30 16:03:40;;;;;;;47.50;16.67;;;;;;;;;;4860310;29;20025;-73
2021/12/30 16:06:06;;;;;;;45.35;16.80;;;;;;;;;;4858953;29;20086;-73
2021/12/30 16:08:32;;;;;;;41.40;15.25;;;;;;;;;;4859724;29;20030;-75
2021/12/30 16:10:59;;;;;;;35.95;14.98;;;;;;;;;;4859977;29;20030;-75
2021/12/30 16:13:26;;;;;;;44.67;16.65;;;;;;;;;;4860087;29;20491;-74
2021/12/30 16:15:52;;;;;;;35.92;15.95;;;;;;;;;;4861238;29;20087;-74
2021/12/30 16:18:21;;;;;;;35.47;14.80;;;;;;;;;;4859946;29;20029;-75
2021/12/30 16:20:47;;;;;;;35.83;15.23;;;;;;;;;;4860476;29;20093;-74
2021/12/30 16:23:14;;;;;;;37.65;15.52;;;;;;;;;;4859872;29;20033;-73
2021/12/30 16:25:41;;;;;;;39.30;15.82;;;;;;;;;;4859882;29;20029;-75
2021/12/30 16:28:07;;;;;;;36.08;14.45;;;;;;;;;;4861627;29;20128;-73
2021/12/30 16:30:34;;;;;;;32.85;14.60;;;;;;;;;;4859776;29;20041;-75
2021/12/30 16:33:00;;;;;;;32.42;15.15;;;;;;;;;;4860982;29;20042;-74
2021/12/30 16:35:26;;;;;;;33.28;14.75;;;;;;;;;;4859696;29;20033;-75
2021/12/30 16:37:52;;;;;;;29.58;14.18;;;;;;;;;;4859732;29;20050;-73
2021/12/30 16:40:19;;;;;;;29.67;14.27;;;;;;;;;;4859688;29;20037;-74
2021/12/30 16:42:46;;;;;;;40.80;17.65;;;;;;;;;;4861897;29;20355;-73
2021/12/30 16:45:13;;;;;;;34.00;15.07;;;;;;;;;;4863414;29;20033;-75
2021/12/30 16:47:40;;;;;;;32.17;14.73;;;;;;;;;;4864210;29;20025;-74
2021/12/30 16:50:06;;;;;;;31.13;16.17;;;;;;;;;;4863398;29;20390;-75
2021/12/30 16:52:32;;;;;;;31.55;16.02;;;;;;;;;;4864664;29;20038;-74
2021/12/30 16:54:59;;;;;;;29.85;14.68;;;;;;;;;;4863314;29;20029;-75
2021/12/30 16:57:26;;;;;;;30.92;14.68;;;;;;;;;;4864527;29;20033;-74
2021/12/30 16:59:52;;;;;;;28.48;14.60;;;;;;;;;;4863133;29;20172;-74
2021/12/30 17:02:18;;;;;;;30.85;14.43;;;;;;;;;;4864239;29;20045;-73
2021/12/30 17:04:45;;;;;;;35.05;16.00;;;;;;;;;;4864226;29;20034;-73
2021/12/30 17:07:11;;;;;;;33.05;16.55;;;;;;;;;;4864243;29;20025;-74
2021/12/30 17:09:37;;;;;;;30.58;16.00;;;;;;;;;;4864266;29;20036;-74
2021/12/30 17:12:04;;;;;;;30.65;15.27;;;;;;;;;;4864660;29;20022;-74
2021/12/30 17:14:31;;;;;;;34.67;16.17;;;;;;;;;;4862931;29;20078;-74
2021/12/30 17:16:57;;;;;;;32.80;15.98;;;;;;;;;;4862903;29;20038;-74
2021/12/30 17:19:23;;;;;;;34.03;15.05;;;;;;;;;;4863659;29;20025;-74
2021/12/30 17:21:50;;;;;;;31.40;15.75;;;;;;;;;;4864059;29;20030;-73
2021/12/30 17:24:16;;;;;;;32.97;14.63;;;;;;;;;;4864288;29;20440;-73
2021/12/30 17:26:43;;;;;;;27.08;14.05;;;;;;;;;;4862754;29;20471;-74
2021/12/30 17:29:09;;;;;;;31.58;14.63;;;;;;;;;;4863828;29;20067;-73
2021/12/30 17:31:35;;;;;;;30.55;15.30;;;;;;;;;;4863795;29;20026;-75
2021/12/30 17:34:04;;;;;;;29.90;14.82;;;;;;;;;;4862529;29;20045;-75
2021/12/30 17:36:30;;;;;;;26.85;13.68;;;;;;;;;;4863705;29;20083;-75
2021/12/30 17:38:56;;;;;;;28.75;13.25;;;;;;;;;;4863784;29;20441;-75
2021/12/30 17:41:22;;;;;;;26.48;13.48;;;;;;;;;;4863655;29;20064;-75
2021/12/30 17:43:50;;;;;;;28.13;14.02;;;;;;;;;;4864187;29;20026;-74
2021/12/30 17:46:17;;;;;;;27.70;13.70;;;;;;;;;;4862436;29;20459;-75
2021/12/30 17:48:43;;;;;;;58.15;33.10;;;;;;;;;;4863600;29;20097;-76
2021/12/30 17:51:09;;;;;;;29.77;15.25;;;;;;;;;;4864154;29;20058;-76
2021/12/30 17:53:36;;;;;;;28.73;14.80;;;;;;;;;;4862047;29;20056;-76
2021/12/30 17:56:05;;;;;;;25.42;12.48;;;;;;;;;;4862300;29;20130;-76
2021/12/30 17:58:31;;;;;;;28.08;14.27;;;;;;;;;;4862991;29;20025;-75
2021/12/30 18:00:57;;;;;;;32.40;15.82;;;;;;;;;;4861678;29;20049;-76
2021/12/30 18:03:24;;;;;;;26.60;13.80;;;;;;;;;;4862166;29;20040;-73
2021/12/30 18:05:50;;;;;;;27.92;14.52;;;;;;;;;;4862022;29;20372;-75
2021/12/30 18:08:16;;;;;;;27.67;14.45;;;;;;;;;;4863235;29;20026;-74
2021/12/30 18:10:43;;;;;;;24.27;13.43;;;;;;;;;;4863322;29;20108;-74
2021/12/30 18:13:10;;;;;;;25.80;13.32;;;;;;;;;;4863660;29;20211;-72
2021/12/30 18:15:37;;;;;;;27.88;14.40;;;;;;;;;;4861934;29;20029;-72
2021/12/30 18:18:04;;;;;;;28.30;15.05;;;;;;;;;;4863563;29;20383;-72
2021/12/30 18:20:31;;;;;;;30.48;16.00;;;;;;;;;;4861814;29;20506;-72
2021/12/30 18:22:57;;;;;;;29.08;16.52;;;;;;;;;;4861730;29;20060;-72
2021/12/30 18:25:24;;;;;;;31.83;16.90;;;;;;;;;;4861710;29;20037;-72
2021/12/30 18:27:50;;;;;;;32.92;15.68;;;;;;;;;;4861563;29;20026;-76
2021/12/30 18:30:16;;;;;;;30.85;16.70;;;;;;;;;;4861572;29;20097;-72
2021/12/30 18:32:42;;;;;;;30.77;16.65;;;;;;;;;;4861510;29;20041;-73
2021/12/30 18:35:09;;;;;;;32.63;16.70;;;;;;;;;;4861539;29;20511;-73
2021/12/30 18:37:35;;;;;;;31.77;16.08;;;;;;;;;;4862201;29;20041;-75
2021/12/30 18:40:03;;;;;;;34.90;17.60;;;;;;;;;;4862605;29;20032;-75
2021/12/30 18:42:30;;;;;;;36.78;17.33;;;;;;;;;;4861295;29;20025;-75
2021/12/30 18:44:57;;;;;;;39.10;19.60;;;;;;;;;;4862538;29;20108;-73
2021/12/30 18:47:24;;;;;;;46.15;23.17;;;;;;;;;;4861145;29;20120;-75
2021/12/30 18:49:51;;;;;;;46.05;22.70;;;;;;;;;;4861233;29;20036;-75
2021/12/30 18:52:17;;;;;;;39.00;20.38;;;;;;;;;;4862394;29;20046;-73
2021/12/30 18:54:45;;;;;;;37.15;19.70;;;;;;;;;;4862470;29;20029;-73
2021/12/30 18:57:11;;;;;;;39.80;20.20;;;;;;;;;;4862437;29;20495;-74
2021/12/30 18:59:37;;;;;;;35.55;20.38;;;;;;;;;;4862333;29;20041;-73
2021/12/30 19:02:04;;;;;;;37.88;20.38;;;;;;;;;;4862114;29;20459;-75
2021/12/30 19:04:30;;;;;;;37.35;20.17;;;;;;;;;;4859024;29;20025;-79
2021/12/30 19:06:58;;;;;;;34.42;18.02;;;;;;;;;;4910121;23;20067;-74
2021/12/30 19:09:25;;;;;;;36.22;19.85;;;;;;;;;;4823121;29;20062;-74
2021/12/30 19:11:54;;;;;;;35.38;20.42;;;;;;;;;;4825106;29;20087;-75
2021/12/30 19:14:20;;;;;;;38.08;21.27;;;;;;;;;;4825580;29;20031;-74
2021/12/30 19:16:47;;;;;;;40.05;21.77;;;;;;;;;;4825242;29;20086;-73
2021/12/30 19:19:13;;;;;;;37.40;21.02;;;;;;;;;;4825228;29;20373;-74
2021/12/30 19:21:40;;;;;;;35.53;19.50;;;;;;;;;;4823095;29;20029;-74
2021/12/30 19:24:06;;;;;;;38.45;21.38;;;;;;;;;;4823825;29;20031;-73
2021/12/30 19:26:32;;;;;;;34.58;19.55;;;;;;;;;;4825179;29;20476;-75
2021/12/30 19:28:59;;;;;;;39.33;21.02;;;;;;;;;;4824798;29;20045;-76
2021/12/30 19:31:25;;;;;;;38.17;21.35;;;;;;;;;;4825111;29;20073;-76
2021/12/30 19:33:52;;;;;;;33.15;17.75;;;;;;;;;;4825403;29;20117;-77
2021/12/30 19:36:18;;;;;;;32.50;18.98;;;;;;;;;;4825204;29;20026;-75
2021/12/30 19:38:44;;;;;;;33.92;18.67;;;;;;;;;;4825017;29;20034;-74
2021/12/30 19:41:12;;;;;;;36.65;18.98;;;;;;;;;;4825057;29;20023;-74
2021/12/30 19:43:41;;;;;;;33.55;19.13;;;;;;;;;;4823741;29;20484;-73
2021/12/30 19:46:08;;;;;;;35.50;19.08;;;;;;;;;;4825085;29;20026;-75
2021/12/30 19:48:35;;;;;;;33.13;17.55;;;;;;;;;;4825422;29;20403;-76
2021/12/30 19:51:01;;;;;;;34.50;17.65;;;;;;;;;;4824895;29;20065;-74
2021/12/30 19:53:27;;;;;;;29.85;16.90;;;;;;;;;;4824796;29;20046;-75
2021/12/30 19:55:54;;;;;;;29.95;17.67;;;;;;;;;;4824603;29;20091;-76
2021/12/30 19:58:20;;;;;;;28.77;17.13;;;;;;;;;;4825340;29;20045;-77
2021/12/30 20:00:49;;;;;;;28.30;15.95;;;;;;;;;;4823298;29;20026;-74
2021/12/30 20:03:19;;;;;;;27.85;14.90;;;;;;;;;;4823559;29;20038;-74
2021/12/30 20:05:46;;;;;;;27.40;15.98;;;;;;;;;;4823427;29;20407;-74
2021/12/30 20:08:13;;;;;;;27.05;14.98;;;;;;;;;;4823339;29;20392;-76
2021/12/30 20:10:39;;;;;;;25.52;15.05;;;;;;;;;;4823536;29;20030;-77
2021/12/30 20:13:06;;;;;;;29.15;15.30;;;;;;;;;;4823364;29;20034;-75
2021/12/30 20:15:32;;;;;;;27.02;14.38;;;;;;;;;;4825177;29;20034;-75
2021/12/30 20:17:59;;;;;;;27.73;14.52;;;;;;;;;;4825172;29;20038;-75
2021/12/30 20:20:25;;;;;;;29.90;15.48;;;;;;;;;;4823221;29;20026;-75
2021/12/30 20:22:51;;;;;;;30.40;16.05;;;;;;;;;;4823403;29;20062;-75
2021/12/30 20:25:19;;;;;;;29.20;15.80;;;;;;;;;;4824585;29;20033;-75
2021/12/30 20:27:45;;;;;;;27.42;15.07;;;;;;;;;;4823248;29;20400;-74
2021/12/30 20:30:14;;;;;;;26.88;15.05;;;;;;;;;;4823168;29;20065;-75
2021/12/30 20:32:40;;;;;;;27.02;15.02;;;;;;;;;;4824439;29;20101;-74
2021/12/30 20:35:08;;;;;;;30.50;15.95;;;;;;;;;;4823236;29;20072;-75
2021/12/30 20:37:34;;;;;;;30.08;15.32;;;;;;;;;;4823132;29;20038;-76
2021/12/30 20:40:00;;;;;;;29.45;16.52;;;;;;;;;;4823106;29;20537;-75
2021/12/30 20:42:26;;;;;;;28.25;14.35;;;;;;;;;;4823188;29;20033;-75
2021/12/30 20:44:52;;;;;;;23.65;14.50;;;;;;;;;;4823092;29;20027;-76
2021/12/30 20:47:19;;;;;;;28.23;16.05;;;;;;;;;;4824343;29;20041;-76
2021/12/30 20:49:46;;;;;;;27.90;14.13;;;;;;;;;;4824505;29;20499;-76
2021/12/30 20:52:12;;;;;;;26.98;14.75;;;;;;;;;;4823002;29;20081;-76
2021/12/30 20:54:38;;;;;;;26.70;13.93;;;;;;;;;;4822761;29;20083;-74
2021/12/30 20:57:06;;;;;;;25.50;13.55;;;;;;;;;;4824139;29;20030;-74
2021/12/30 20:59:32;;;;;;;28.52;13.88;;;;;;;;;;4824729;29;20049;-74
2021/12/30 21:01:58;;;;;;;31.58;17.20;;;;;;;;;;4824078;29;20023;-73
2021/12/30 21:04:25;;;;;;;43.10;20.83;;;;;;;;;;4822970;29;20069;-74
2021/12/30 21:06:53;;;;;;;42.58;20.23;;;;;;;;;;4822533;29;20609;-75
2021/12/30 21:09:22;;;;;;;33.90;17.15;;;;;;;;;;4824402;29;20050;-75
2021/12/30 21:11:48;;;;;;;34.30;17.98;;;;;;;;;;4822836;29;20472;-74
2021/12/30 21:14:14;;;;;;;33.92;16.90;;;;;;;;;;4824015;29;20068;-74
2021/12/30 21:16:41;;;;;;;31.88;17.27;;;;;;;;;;4824067;29;20072;-75
2021/12/30 21:19:08;;;;;;;31.77;16.75;;;;;;;;;;4824515;29;20507;-74
2021/12/30 21:21:34;;;;;;;27.80;14.80;;;;;;;;;;4824085;29;20054;-76
2021/12/30 21:24:00;;;;;;;25.00;13.65;;;;;;;;;;4822998;29;20053;-76
2021/12/30 21:26:28;;;;;;;24.42;13.07;;;;;;;;;;4822732;29;20058;-75
2021/12/30 21:28:55;;;;;;;22.00;13.02;;;;;;;;;;4826235;29;20037;-76
2021/12/30 21:31:24;;;;;;;27.13;14.38;;;;;;;;;;4827130;29;20087;-74
2021/12/30 21:33:50;;;;;;;36.25;19.23;;;;;;;;;;4825764;29;20068;-73
2021/12/30 21:36:18;;;;;;;32.85;17.45;;;;;;;;;;4827016;29;20031;-74
2021/12/30 21:38:45;;;;;;;29.65;15.13;;;;;;;;;;4826939;29;20096;-74
2021/12/30 21:41:11;;;;;;;27.15;14.57;;;;;;;;;;4825888;29;20391;-74
2021/12/30 21:43:37;;;;;;;26.83;14.75;;;;;;;;;;4825852;29;20064;-75
2021/12/30 21:46:05;;;;;;;25.13;13.48;;;;;;;;;;4825646;29;20057;-75
2021/12/30 21:48:31;;;;;;;24.70;13.88;;;;;;;;;;4827358;29;20054;-74
2021/12/30 21:50:58;;;;;;;24.20;14.43;;;;;;;;;;4825456;29;20090;-75
2021/12/30 21:53:24;;;;;;;27.48;15.15;;;;;;;;;;4826643;29;20081;-75
2021/12/30 21:55:51;;;;;;;25.20;12.98;;;;;;;;;;4826649;29;20026;-74
2021/12/30 21:58:17;;;;;;;24.30;13.15;;;;;;;;;;4826668;29;20030;-75
2021/12/30 22:00:43;;;;;;;28.23;14.00;;;;;;;;;;4826598;29;20041;-74
2021/12/30 22:03:09;;;;;;;26.70;14.35;;;;;;;;;;4825348;29;20035;-75
2021/12/30 22:05:37;;;;;;;26.42;14.02;;;;;;;;;;4825308;29;20031;-74
2021/12/30 22:08:06;;;;;;;28.38;16.25;;;;;;;;;;4825009;29;20043;-73
2021/12/30 22:10:32;;;;;;;24.30;13.93;;;;;;;;;;4827051;29;20060;-74
2021/12/30 22:12:59;;;;;;;30.65;15.93;;;;;;;;;;4826571;29;20039;-74
2021/12/30 22:15:25;;;;;;;27.48;15.13;;;;;;;;;;4825055;29;20030;-76
2021/12/30 22:17:52;;;;;;;29.90;15.43;;;;;;;;;;4826326;29;20058;-76
2021/12/30 22:20:19;;;;;;;30.08;15.45;;;;;;;;;;4826334;29;20038;-76
2021/12/30 22:22:49;;;;;;;38.83;20.00;;;;;;;;;;4824997;29;20488;-76
2021/12/30 22:25:16;;;;;;;42.33;20.48;;;;;;;;;;4824951;29;20030;-74
2021/12/30 22:27:42;;;;;;;36.35;20.63;;;;;;;;;;4826212;29;20031;-74
2021/12/30 22:30:09;;;;;;;39.35;20.58;;;;;;;;;;4826173;29;20030;-76
2021/12/30 22:32:36;;;;;;;37.72;19.40;;;;;;;;;;4826018;29;20126;-74
2021/12/30 22:35:02;;;;;;;42.05;20.35;;;;;;;;;;4824825;29;20446;-76
2021/12/30 22:37:28;;;;;;;34.05;18.90;;;;;;;;;;4825674;29;20034;-74
2021/12/30 22:39:55;;;;;;;35.95;19.45;;;;;;;;;;4823859;29;20053;-75
2021/12/30 22:42:21;;;;;;;39.58;21.08;;;;;;;;;;4824716;29;20106;-75
2021/12/30 22:44:47;;;;;;;41.33;21.92;;;;;;;;;;4824694;29;20067;-76
2021/12/30 22:47:13;;;;;;;36.60;20.48;;;;;;;;;;4824705;29;20128;-75
2021/12/30 22:49:39;;;;;;;37.65;20.08;;;;;;;;;;4824670;29;20038;-74
2021/12/30 22:52:09;;;;;;;39.55;20.35;;;;;;;;;;4824521;29;20027;-73
2021/12/30 22:54:36;;;;;;;40.65;20.38;;;;;;;;;;4825911;29;20027;-76
2021/12/30 22:57:03;;;;;;;38.95;19.58;;;;;;;;;;4824625;29;20121;-73
2021/12/30 22:59:29;;;;;;;32.38;17.08;;;;;;;;;;4825767;29;20035;-73
2021/12/30 23:01:55;;;;;;;31.95;16.77;;;;;;;;;;4825686;29;20429;-76
2021/12/30 23:04:22;;;;;;;33.75;15.77;;;;;;;;;;4826041;29;20034;-76
2021/12/30 23:06:48;;;;;;;28.35;14.75;;;;;;;;;;4824030;29;20041;-75
2021/12/30 23:09:15;;;;;;;27.23;14.02;;;;;;;;;;4824435;29;20030;-74
2021/12/30 23:11:41;;;;;;;36.55;16.17;;;;;;;;;;4825758;29;20034;-73
2021/12/30 23:14:07;;;;;;;40.10;17.35;;;;;;;;;;4825871;29;20050;-74
2021/12/30 23:16:34;;;;;;;41.63;15.35;;;;;;;;;;4825617;29;20027;-76
2021/12/30 23:19:00;;;;;;;38.60;14.73;;;;;;;;;;4824266;29;20034;-76
2021/12/30 23:21:27;;;;;;;79.45;18.38;;;;;;;;;;4824282;29;20026;-73
2021/12/30 23:23:54;;;;;;;50.53;20.10;;;;;;;;;;4825567;29;20411;-74
2021/12/30 23:26:20;;;;;;;69.70;21.88;;;;;;;;;;4825395;29;20472;-76
2021/12/30 23:28:47;;;;;;;88.70;25.55;;;;;;;;;;4824264;29;20030;-75
2021/12/30 23:31:13;;;;;;;77.68;24.08;;;;;;;;;;4824138;29;20026;-75
2021/12/30 23:33:39;;;;;;;73.75;22.35;;;;;;;;;;4824094;29;20038;-76
2021/12/30 23:36:05;;;;;;;90.72;23.20;;;;;;;;;;4824107;29;20030;-75
2021/12/30 23:38:32;;;;;;;64.78;18.33;;;;;;;;;;4824000;29;20034;-74
2021/12/30 23:40:58;;;;;;;59.63;17.23;;;;;;;;;;4825232;29;20560;-76
2021/12/30 23:43:25;;;;;;;74.20;17.77;;;;;;;;;;4824045;29;20038;-75
2021/12/30 23:45:51;;;;;;;64.78;17.40;;;;;;;;;;4824357;29;20032;-73
2021/12/30 23:48:17;;;;;;;55.90;17.20;;;;;;;;;;4824115;29;20054;-76
2021/12/30 23:50:43;;;;;;;54.92;17.70;;;;;;;;;;4823663;29;20111;-75
2021/12/30 23:53:10;;;;;;;50.67;17.02;;;;;;;;;;4824066;29;20092;-75
2021/12/30 23:55:36;;;;;;;67.05;17.27;;;;;;;;;;4824991;29;20105;-75
2021/12/30 23:58:02;;;;;;;72.35;16.35;;;;;;;;;;4825449;29;20491;-76
